Time;durP1;ratioP1;P1;durP2;ratioP2;P2;SDS_P1;SDS_P2;PMS_P1;PMS_P2;Temp;Humidity;BMP_temperature;BMP_pressure;BME280_temperature;BME280_humidity;BME280_pressure;Samples;Min_cycle;Max_cycle;Signal;HPM_P1;HPM_P2
2022/03/20 00:01:10;;;;;;;7.50;3.92;;;;;;;;;;5030609;28;20030;-71
2022/03/20 00:03:36;;;;;;;8.85;4.13;;;;;;;;;;5032625;28;20080;-71
2022/03/20 00:06:03;;;;;;;6.55;3.88;;;;;;;;;;5031177;28;20137;-71
2022/03/20 00:08:30;;;;;;;11.90;4.50;;;;;;;;;;5031343;28;20108;-70
2022/03/20 00:10:59;;;;;;;6.80;3.92;;;;;;;;;;5033063;28;20033;-71
2022/03/20 00:13:25;;;;;;;8.60;4.80;;;;;;;;;;5029220;28;20584;-77
2022/03/20 00:15:52;;;;;;;8.25;3.95;;;;;;;;;;5032045;28;20025;-71
2022/03/20 00:18:26;;;;;;;7.88;4.07;;;;;;;;;;5032598;28;20068;-71
2022/03/20 00:20:54;;;;;;;6.65;3.80;;;;;;;;;;5030703;28;20025;-71
2022/03/20 00:23:23;;;;;;;6.00;3.97;;;;;;;;;;5032442;28;20107;-71
2022/03/20 00:25:50;;;;;;;6.35;3.55;;;;;;;;;;5030435;28;20025;-72
2022/03/20 00:28:18;;;;;;;7.20;3.70;;;;;;;;;;5032955;28;20049;-70
2022/03/20 00:30:45;;;;;;;6.00;3.90;;;;;;;;;;5031339;28;20030;-71
2022/03/20 00:33:11;;;;;;;9.32;3.65;;;;;;;;;;5030834;28;20029;-70
2022/03/20 00:35:37;;;;;;;7.13;3.55;;;;;;;;;;5032365;28;20037;-71
2022/03/20 00:38:07;;;;;;;5.85;3.65;;;;;;;;;;5035152;28;20041;-71
2022/03/20 00:40:34;;;;;;;7.28;4.18;;;;;;;;;;5033596;28;20084;-73
2022/03/20 00:43:00;;;;;;;7.53;4.00;;;;;;;;;;5036834;28;20082;-71
2022/03/20 00:45:28;;;;;;;7.50;3.80;;;;;;;;;;5037046;28;20076;-74
2022/03/20 00:47:54;;;;;;;6.82;3.17;;;;;;;;;;5032833;28;20052;-71
2022/03/20 00:50:21;;;;;;;7.60;3.35;;;;;;;;;;5034978;28;20033;-71
2022/03/20 00:52:47;;;;;;;6.63;3.35;;;;;;;;;;5035579;28;20022;-71
2022/03/20 00:55:14;;;;;;;5.68;3.60;;;;;;;;;;5038727;28;20037;-71
2022/03/20 00:57:40;;;;;;;6.72;3.10;;;;;;;;;;5035228;28;20535;-70
2022/03/20 01:00:07;;;;;;;8.15;3.20;;;;;;;;;;5035088;28;20032;-72
2022/03/20 01:02:37;;;;;;;4.88;2.70;;;;;;;;;;5034707;28;20025;-72
2022/03/20 01:05:03;;;;;;;5.55;3.60;;;;;;;;;;5032818;28;20028;-72
2022/03/20 01:07:29;;;;;;;6.18;3.20;;;;;;;;;;5037826;28;20032;-71
2022/03/20 01:09:55;;;;;;;5.22;3.20;;;;;;;;;;5034810;28;20028;-71
2022/03/20 01:12:22;;;;;;;4.47;2.75;;;;;;;;;;5028783;28;20433;-71
2022/03/20 01:14:48;;;;;;;4.68;3.42;;;;;;;;;;5033116;28;20490;-72
2022/03/20 01:17:14;;;;;;;4.85;3.25;;;;;;;;;;5035948;28;20047;-71
2022/03/20 01:19:41;;;;;;;6.20;3.25;;;;;;;;;;5033899;28;20018;-79
2022/03/20 01:22:07;;;;;;;6.45;2.90;;;;;;;;;;5037030;28;20148;-72
2022/03/20 01:24:35;;;;;;;3.33;2.40;;;;;;;;;;5034668;28;20538;-71
2022/03/20 01:27:01;;;;;;;6.45;2.75;;;;;;;;;;5034366;28;20020;-76
2022/03/20 01:29:27;;;;;;;4.20;2.97;;;;;;;;;;5040635;28;20583;-72
2022/03/20 01:31:53;;;;;;;3.20;2.53;;;;;;;;;;5037954;28;20079;-74
2022/03/20 01:34:19;;;;;;;5.53;2.30;;;;;;;;;;5033600;28;20089;-71
2022/03/20 01:36:46;;;;;;;3.42;2.60;;;;;;;;;;5036364;28;20049;-72
2022/03/20 01:39:12;;;;;;;4.40;2.90;;;;;;;;;;5034665;28;20022;-70
2022/03/20 01:41:38;;;;;;;5.35;3.08;;;;;;;;;;5036955;28;20035;-71
2022/03/20 01:44:04;;;;;;;4.00;2.60;;;;;;;;;;5042580;28;20148;-71
2022/03/20 01:46:32;;;;;;;3.35;2.30;;;;;;;;;;5033526;28;20086;-71
2022/03/20 01:48:58;;;;;;;2.50;2.03;;;;;;;;;;5033469;28;20025;-71
2022/03/20 01:54:13;;;;;;;3.65;2.40;;;;;;;;;;5032461;28;20036;-71
2022/03/20 01:56:46;;;;;;;3.38;2.10;;;;;;;;;;5035535;28;20044;-71
2022/03/20 01:59:14;;;;;;;3.25;1.98;;;;;;;;;;5027912;28;20045;-71
2022/03/20 02:01:40;;;;;;;3.97;1.98;;;;;;;;;;5034400;28;20037;-71
2022/03/20 02:04:06;;;;;;;3.28;2.13;;;;;;;;;;5039011;28;20024;-72
2022/03/20 02:06:32;;;;;;;4.90;2.42;;;;;;;;;;5026498;28;20038;-72
2022/03/20 02:08:59;;;;;;;5.38;2.30;;;;;;;;;;5027129;28;20024;-71
2022/03/20 02:11:25;;;;;;;3.30;2.10;;;;;;;;;;5027584;28;20670;-76
2022/03/20 02:13:52;;;;;;;3.10;2.17;;;;;;;;;;5028915;28;20052;-71
2022/03/20 02:16:19;;;;;;;3.42;2.40;;;;;;;;;;5036874;28;20548;-70
2022/03/20 02:18:46;;;;;;;3.30;2.38;;;;;;;;;;5029731;28;20037;-74
2022/03/20 02:21:15;;;;;;;3.22;2.50;;;;;;;;;;5029309;28;20017;-70
2022/03/20 02:23:43;;;;;;;6.20;2.55;;;;;;;;;;5032987;28;20413;-71
2022/03/20 02:26:09;;;;;;;4.28;2.80;;;;;;;;;;5032746;28;20087;-70
2022/03/20 02:28:35;;;;;;;3.85;2.78;;;;;;;;;;5027674;28;20021;-70
2022/03/20 02:31:02;;;;;;;4.85;3.42;;;;;;;;;;5030987;28;20060;-71
2022/03/20 02:33:29;;;;;;;3.67;2.72;;;;;;;;;;5035081;28;20067;-70
2022/03/20 02:35:55;;;;;;;3.72;3.10;;;;;;;;;;5033486;28;20031;-70
2022/03/20 02:38:21;;;;;;;5.40;3.17;;;;;;;;;;5042906;28;20052;-71
2022/03/20 02:40:51;;;;;;;4.13;3.00;;;;;;;;;;5031575;28;20049;-73
2022/03/20 02:43:17;;;;;;;5.47;3.70;;;;;;;;;;5034080;28;20021;-71
2022/03/20 02:45:43;;;;;;;3.92;3.42;;;;;;;;;;5039314;28;20437;-71
2022/03/20 02:48:10;;;;;;;3.95;3.40;;;;;;;;;;5035986;28;20116;-72
2022/03/20 02:50:37;;;;;;;4.05;3.30;;;;;;;;;;5041155;28;20501;-69
2022/03/20 02:53:05;;;;;;;4.65;3.53;;;;;;;;;;5032828;28;20389;-71
2022/03/20 02:55:35;;;;;;;4.55;4.07;;;;;;;;;;5038204;28;20040;-70
2022/03/20 02:58:02;;;;;;;5.45;4.00;;;;;;;;;;5035614;28;20041;-70
2022/03/20 03:00:29;;;;;;;4.47;3.75;;;;;;;;;;5032943;28;20552;-71
2022/03/20 03:02:56;;;;;;;5.95;3.95;;;;;;;;;;5037928;28;20100;-70
2022/03/20 03:05:24;;;;;;;4.68;4.18;;;;;;;;;;5033999;28;20097;-70
2022/03/20 03:13:22;;;;;;;3.55;3.25;;;;;;;;;;5036081;28;20049;-70
2022/03/20 03:15:48;;;;;;;4.88;3.72;;;;;;;;;;5035829;28;20017;-70
2022/03/20 03:18:14;;;;;;;5.10;3.95;;;;;;;;;;5036323;28;20040;-75
2022/03/20 03:20:40;;;;;;;6.57;3.60;;;;;;;;;;5037617;28;20100;-70
2022/03/20 03:23:06;;;;;;;4.43;3.78;;;;;;;;;;5041971;28;20040;-70
2022/03/20 03:25:33;;;;;;;5.90;3.55;;;;;;;;;;5034547;28;20416;-70
2022/03/20 03:28:00;;;;;;;4.38;3.88;;;;;;;;;;5036686;28;20021;-70
2022/03/20 03:30:26;;;;;;;3.55;3.10;;;;;;;;;;5033890;28;20677;-71
2022/03/20 03:32:52;;;;;;;5.20;3.75;;;;;;;;;;5036436;28;20021;-70
2022/03/20 03:38:03;;;;;;;4.75;3.75;;;;;;;;;;5034241;28;20417;-81
2022/03/20 03:40:30;;;;;;;4.38;3.20;;;;;;;;;;5035192;28;20112;-73
2022/03/20 03:42:57;;;;;;;5.18;3.50;;;;;;;;;;5039586;28;20021;-77
2022/03/20 03:45:24;;;;;;;5.10;3.03;;;;;;;;;;5037117;28;20504;-70
2022/03/20 03:47:50;;;;;;;3.88;3.03;;;;;;;;;;5033464;28;20106;-70
2022/03/20 03:50:17;;;;;;;4.03;3.13;;;;;;;;;;5034864;28;20025;-71
2022/03/20 03:52:43;;;;;;;3.40;3.10;;;;;;;;;;5032363;28;20060;-71
2022/03/20 03:55:09;;;;;;;4.20;3.08;;;;;;;;;;5036023;28;20033;-71
2022/03/20 03:57:35;;;;;;;3.10;2.80;;;;;;;;;;5038833;28;20367;-70
2022/03/20 04:00:01;;;;;;;4.78;3.03;;;;;;;;;;5033563;28;20025;-70
2022/03/20 04:02:29;;;;;;;3.83;3.00;;;;;;;;;;5037357;28;20036;-71
2022/03/20 04:04:55;;;;;;;3.33;2.95;;;;;;;;;;5031161;28;20056;-71
2022/03/20 04:07:21;;;;;;;3.40;2.90;;;;;;;;;;5033417;28;20502;-77
2022/03/20 04:09:50;;;;;;;3.92;3.00;;;;;;;;;;5033815;28;20029;-70
2022/03/20 04:12:16;;;;;;;3.55;2.92;;;;;;;;;;5033571;28;20033;-70
2022/03/20 04:14:43;;;;;;;3.60;2.60;;;;;;;;;;5032929;28;20030;-70
2022/03/20 04:17:09;;;;;;;3.10;2.20;;;;;;;;;;5029870;28;20381;-70
2022/03/20 04:19:35;;;;;;;3.15;2.60;;;;;;;;;;5030093;28;20695;-70
2022/03/20 04:22:02;;;;;;;2.78;2.50;;;;;;;;;;5026835;28;20040;-70
2022/03/20 04:24:28;;;;;;;2.80;2.60;;;;;;;;;;5030860;28;20124;-70
2022/03/20 04:26:55;;;;;;;3.10;2.80;;;;;;;;;;5029107;28;20033;-69
2022/03/20 04:29:21;;;;;;;3.15;2.67;;;;;;;;;;5028230;28;20104;-70
2022/03/20 04:31:53;;;;;;;4.70;2.75;;;;;;;;;;5029583;28;20032;-70
2022/03/20 04:34:20;;;;;;;;;;;;;;;;;;5032710;28;20037;-71
2022/03/20 04:36:46;;;;;;;2.90;2.30;;;;;;;;;;5028839;28;20015;-74
2022/03/20 04:39:12;;;;;;;3.00;2.70;;;;;;;;;;5030782;28;20040;-70
2022/03/20 04:41:38;;;;;;;4.50;2.72;;;;;;;;;;5027712;28;20029;-71
2022/03/20 04:44:07;;;;;;;6.82;3.15;;;;;;;;;;5027447;28;20115;-70
2022/03/20 04:46:33;;;;;;;4.22;2.83;;;;;;;;;;5030108;28;20025;-70
2022/03/20 04:59:59;;;;;;;3.55;2.88;;;;;;;;;;5032256;28;20682;-70
2022/03/20 05:02:25;;;;;;;4.50;3.25;;;;;;;;;;5035128;28;20049;-70
2022/03/20 05:04:52;;;;;;;3.67;3.10;;;;;;;;;;5030492;28;20021;-71
2022/03/20 05:07:19;;;;;;;4.18;3.50;;;;;;;;;;5033219;28;20076;-70
2022/03/20 05:15:14;;;;;;;4.47;3.40;;;;;;;;;;5032460;28;20048;-70
2022/03/20 05:17:41;;;;;;;3.95;3.30;;;;;;;;;;5035187;28;20049;-71
2022/03/20 05:20:07;;;;;;;5.72;3.10;;;;;;;;;;5034785;28;20246;-70
2022/03/20 05:22:38;;;;;;;5.80;3.70;;;;;;;;;;5038914;28;20386;-70
2022/03/20 05:25:07;;;;;;;8.27;4.10;;;;;;;;;;5030763;28;20485;-71
2022/03/20 05:27:33;;;;;;;5.90;3.70;;;;;;;;;;5040501;28;20573;-72
2022/03/20 05:30:00;;;;;;;7.40;3.85;;;;;;;;;;5030891;28;20026;-72
2022/03/20 05:32:26;;;;;;;6.30;3.67;;;;;;;;;;5032643;28;20067;-71
2022/03/20 05:34:52;;;;;;;4.45;3.70;;;;;;;;;;5032708;28;20477;-71
2022/03/20 05:37:19;;;;;;;6.25;4.10;;;;;;;;;;5029268;28;20102;-71
2022/03/20 05:39:45;;;;;;;7.15;3.97;;;;;;;;;;5033438;28;20501;-71
2022/03/20 05:42:13;;;;;;;5.65;3.97;;;;;;;;;;5031946;28;20405;-71
2022/03/20 05:44:40;;;;;;;5.95;4.30;;;;;;;;;;5029873;28;20029;-71
2022/03/20 05:47:07;;;;;;;8.32;4.53;;;;;;;;;;5034448;28;20021;-71
2022/03/20 05:49:35;;;;;;;6.35;4.47;;;;;;;;;;5029789;28;20090;-71
2022/03/20 05:52:01;;;;;;;5.68;4.40;;;;;;;;;;5031834;28;20025;-71
2022/03/20 05:54:27;;;;;;;5.20;4.68;;;;;;;;;;5034180;28;20530;-71
2022/03/20 05:59:38;;;;;;;10.90;5.20;;;;;;;;;;5032281;28;20468;-71
2022/03/20 06:02:06;;;;;;;5.80;5.20;;;;;;;;;;5029847;28;20801;-71
2022/03/20 06:04:33;;;;;;;6.78;5.10;;;;;;;;;;5034579;28;20090;-71
2022/03/20 06:06:59;;;;;;;7.50;5.50;;;;;;;;;;5032916;28;20032;-71
2022/03/20 06:09:25;;;;;;;7.70;5.53;;;;;;;;;;5030238;28;20057;-76
2022/03/20 06:11:51;;;;;;;8.30;5.95;;;;;;;;;;5032990;28;20075;-71
2022/03/20 06:14:18;;;;;;;9.48;6.53;;;;;;;;;;5030713;28;20048;-71
2022/03/20 06:16:47;;;;;;;8.15;5.75;;;;;;;;;;5031070;28;20042;-71
2022/03/20 06:19:15;;;;;;;9.30;6.47;;;;;;;;;;5035692;28;20033;-71
2022/03/20 06:21:42;;;;;;;8.27;5.80;;;;;;;;;;5034269;28;20417;-70
2022/03/20 06:24:08;;;;;;;8.25;5.82;;;;;;;;;;5033908;28;20481;-70
2022/03/20 06:26:35;;;;;;;14.30;6.60;;;;;;;;;;5031106;28;20041;-69
2022/03/20 06:29:05;;;;;;;9.65;5.95;;;;;;;;;;5032058;28;20022;-71
2022/03/20 06:31:31;;;;;;;8.32;6.32;;;;;;;;;;5033489;28;20390;-70
2022/03/20 06:34:01;;;;;;;8.55;7.03;;;;;;;;;;5034536;28;20036;-70
2022/03/20 06:36:28;;;;;;;9.95;5.57;;;;;;;;;;5030453;28;20648;-70
2022/03/20 06:38:55;;;;;;;7.30;5.78;;;;;;;;;;5035129;28;20100;-70
2022/03/20 06:41:21;;;;;;;7.93;5.47;;;;;;;;;;5031081;28;20037;-69
2022/03/20 06:43:47;;;;;;;8.95;5.80;;;;;;;;;;5037058;28;20647;-70
2022/03/20 06:46:13;;;;;;;7.18;6.32;;;;;;;;;;5029481;28;20124;-69
2022/03/20 06:48:39;;;;;;;7.45;5.60;;;;;;;;;;5037665;28;20029;-71
2022/03/20 06:51:05;;;;;;;6.35;5.10;;;;;;;;;;5034530;28;20102;-69
2022/03/20 06:53:33;;;;;;;9.57;5.60;;;;;;;;;;5034630;28;20029;-70
2022/03/20 06:56:00;;;;;;;6.20;5.13;;;;;;;;;;5031083;28;20108;-70
2022/03/20 06:58:27;;;;;;;6.40;5.00;;;;;;;;;;5033497;28;20603;-84
2022/03/20 07:00:53;;;;;;;8.35;5.10;;;;;;;;;;5035520;28;20033;-73
2022/03/20 07:03:20;;;;;;;6.75;5.30;;;;;;;;;;5035015;28;20036;-77
2022/03/20 07:05:47;;;;;;;7.78;5.35;;;;;;;;;;5028780;28;20602;-72
2022/03/20 07:08:13;;;;;;;9.88;5.25;;;;;;;;;;5027695;28;20037;-72
2022/03/20 07:10:40;;;;;;;13.60;6.90;;;;;;;;;;5031125;28;20136;-71
2022/03/20 07:15:56;;;;;;;12.95;6.15;;;;;;;;;;5031601;28;20099;-71
2022/03/20 07:18:22;;;;;;;11.52;5.82;;;;;;;;;;5029552;28;20037;-71
2022/03/20 07:20:49;;;;;;;8.02;5.13;;;;;;;;;;5036262;28;20029;-72
2022/03/20 07:23:15;;;;;;;5.78;5.10;;;;;;;;;;5028617;28;20116;-71
2022/03/20 07:31:13;;;;;;;8.85;5.43;;;;;;;;;;5029298;28;20112;-72
2022/03/20 07:33:39;;;;;;;11.23;5.80;;;;;;;;;;5030123;28;20102;-72
2022/03/20 07:36:06;;;;;;;12.13;5.32;;;;;;;;;;5031059;28;20065;-73
2022/03/20 07:38:33;;;;;;;7.50;5.25;;;;;;;;;;5030710;28;20024;-72
2022/03/20 07:40:59;;;;;;;9.00;5.05;;;;;;;;;;5030111;28;20052;-71
2022/03/20 07:43:26;;;;;;;9.32;5.35;;;;;;;;;;5032020;28;20029;-71
2022/03/20 07:45:53;;;;;;;8.15;5.78;;;;;;;;;;5031751;28;20021;-80
2022/03/20 07:48:23;;;;;;;10.55;6.88;;;;;;;;;;5029357;28;20025;-73
2022/03/20 07:50:50;;;;;;;16.10;8.45;;;;;;;;;;5030407;28;20036;-72
2022/03/20 07:53:17;;;;;;;11.25;8.27;;;;;;;;;;5029106;28;20450;-72
2022/03/20 07:55:47;;;;;;;11.93;8.63;;;;;;;;;;5025378;28;20036;-71
2022/03/20 07:58:17;;;;;;;6.97;6.28;;;;;;;;;;5027389;28;20044;-73
2022/03/20 08:00:43;;;;;;;8.55;5.53;;;;;;;;;;5031164;28;20021;-71
2022/03/20 08:03:09;;;;;;;9.70;4.93;;;;;;;;;;5031462;28;20060;-72
2022/03/20 08:05:35;;;;;;;6.50;4.47;;;;;;;;;;5031435;28;20028;-72
2022/03/20 08:08:05;;;;;;;6.35;4.28;;;;;;;;;;5028054;28;20781;-72
2022/03/20 08:10:31;;;;;;;7.97;4.40;;;;;;;;;;5033193;28;20028;-72
2022/03/20 08:12:57;;;;;;;6.85;4.20;;;;;;;;;;5029870;28;20504;-72
2022/03/20 08:15:24;;;;;;;5.35;4.20;;;;;;;;;;5028229;28;20129;-72
2022/03/20 08:17:51;;;;;;;7.93;4.60;;;;;;;;;;5034361;28;20032;-77
2022/03/20 08:20:18;;;;;;;7.03;5.03;;;;;;;;;;5029614;28;20048;-72
2022/03/20 08:22:45;;;;;;;6.97;4.43;;;;;;;;;;5032571;28;20486;-74
2022/03/20 08:25:11;;;;;;;7.07;4.35;;;;;;;;;;5033103;28;20037;-71
2022/03/20 08:27:44;;;;;;;6.18;4.22;;;;;;;;;;5034099;28;20028;-72
2022/03/20 08:30:20;;;;;;;4.70;3.85;;;;;;;;;;5032668;28;20040;-72
2022/03/20 08:32:47;;;;;;;5.57;4.55;;;;;;;;;;5030515;28;20063;-71
2022/03/20 08:35:14;;;;;;;6.93;4.10;;;;;;;;;;5033673;28;20995;-71
2022/03/20 08:37:47;;;;;;;4.13;3.60;;;;;;;;;;5031751;28;20076;-72
2022/03/20 08:40:17;;;;;;;4.70;3.95;;;;;;;;;;5033929;28;20095;-72
2022/03/20 08:42:44;;;;;;;7.32;3.78;;;;;;;;;;5032852;28;20029;-72
2022/03/20 08:45:14;;;;;;;6.68;4.05;;;;;;;;;;5033840;28;20017;-71
2022/03/20 08:47:40;;;;;;;4.70;4.10;;;;;;;;;;5032180;28;20286;-71
2022/03/20 08:50:07;;;;;;;6.68;4.40;;;;;;;;;;5034443;28;20024;-72
2022/03/20 08:52:33;;;;;;;5.75;4.20;;;;;;;;;;5034968;28;20033;-72
2022/03/20 08:54:59;;;;;;;6.10;4.30;;;;;;;;;;5029927;28;20021;-71
2022/03/20 08:57:27;;;;;;;6.55;4.22;;;;;;;;;;5031322;28;20045;-71
2022/03/20 08:59:54;;;;;;;8.80;4.40;;;;;;;;;;5032996;28;20033;-72
2022/03/20 09:02:21;;;;;;;8.15;4.38;;;;;;;;;;5033777;28;20029;-72
2022/03/20 09:04:47;;;;;;;6.07;4.47;;;;;;;;;;5033523;28;20759;-72
2022/03/20 09:07:13;;;;;;;7.63;4.70;;;;;;;;;;5030363;28;20497;-71
2022/03/20 09:09:39;;;;;;;11.00;4.97;;;;;;;;;;5033519;28;20503;-72
2022/03/20 09:12:08;;;;;;;8.32;4.90;;;;;;;;;;5029951;28;20995;-72
2022/03/20 09:14:34;;;;;;;7.18;4.70;;;;;;;;;;5032657;28;20835;-71
2022/03/20 09:19:45;;;;;;;6.80;4.90;;;;;;;;;;5032984;28;20044;-72
2022/03/20 09:22:12;;;;;;;7.00;5.38;;;;;;;;;;5029983;28;20036;-72
2022/03/20 09:24:38;;;;;;;10.00;5.05;;;;;;;;;;5030382;28;20033;-72
2022/03/20 09:27:05;;;;;;;9.48;5.47;;;;;;;;;;5034034;28;20534;-71
2022/03/20 09:29:31;;;;;;;9.88;5.93;;;;;;;;;;5032193;28;20029;-75
2022/03/20 09:31:58;;;;;;;9.60;5.75;;;;;;;;;;5028057;28;20037;-72
2022/03/20 09:34:24;;;;;;;8.85;5.60;;;;;;;;;;5031430;28;20025;-71
2022/03/20 09:36:50;;;;;;;7.60;5.50;;;;;;;;;;5029418;28;20484;-71
2022/03/20 09:39:16;;;;;;;6.72;5.53;;;;;;;;;;5033228;28;20062;-71
2022/03/20 09:41:45;;;;;;;8.07;5.80;;;;;;;;;;5030834;28;20032;-72
2022/03/20 09:44:14;;;;;;;6.68;5.47;;;;;;;;;;5032816;28;20021;-72
2022/03/20 09:46:42;;;;;;;8.30;4.95;;;;;;;;;;5028730;28;20021;-72
2022/03/20 09:49:09;;;;;;;8.48;4.88;;;;;;;;;;5032827;28;20059;-72
2022/03/20 09:51:35;;;;;;;8.27;5.13;;;;;;;;;;5037952;28;20051;-71
2022/03/20 09:54:01;;;;;;;9.07;5.00;;;;;;;;;;5031344;28;20039;-73
2022/03/20 09:56:27;;;;;;;7.45;5.00;;;;;;;;;;5035288;28;20036;-76
2022/03/20 09:58:54;;;;;;;7.88;5.38;;;;;;;;;;5034237;28;20028;-77
2022/03/20 10:01:20;;;;;;;9.27;5.53;;;;;;;;;;5035633;28;20614;-71
2022/03/20 10:03:46;;;;;;;9.25;5.32;;;;;;;;;;5029580;28;20045;-71
2022/03/20 10:06:17;;;;;;;8.85;5.75;;;;;;;;;;5033608;28;20144;-71
2022/03/20 10:08:55;;;;;;;9.73;5.53;;;;;;;;;;5036616;28;20703;-72
2022/03/20 10:11:22;;;;;;;6.88;5.50;;;;;;;;;;5035401;28;20032;-71
2022/03/20 10:14:06;;;;;;;7.95;4.90;;;;;;;;;;5029671;28;20397;-71
2022/03/20 10:16:33;;;;;;;7.82;5.38;;;;;;;;;;5031878;28;20041;-71
2022/03/20 10:18:59;;;;;;;8.55;5.03;;;;;;;;;;5033768;28;20032;-71
2022/03/20 10:21:41;;;;;;;10.13;5.47;;;;;;;;;;5031671;28;20121;-73
2022/03/20 10:24:15;;;;;;;6.38;4.97;;;;;;;;;;5034364;28;20043;-75
2022/03/20 10:26:41;;;;;;;9.95;5.22;;;;;;;;;;5033550;28;20394;-72
2022/03/20 10:29:14;;;;;;;8.00;4.88;;;;;;;;;;5031187;28;20651;-72
2022/03/20 10:31:48;;;;;;;7.68;4.80;;;;;;;;;;5027993;28;20033;-76
2022/03/20 10:34:14;;;;;;;8.52;5.30;;;;;;;;;;5030369;28;20116;-74
2022/03/20 10:36:43;;;;;;;8.48;5.15;;;;;;;;;;5036100;28;20119;-73
2022/03/20 10:39:19;;;;;;;7.85;5.07;;;;;;;;;;5027231;28;20039;-72
2022/03/20 10:41:53;;;;;;;9.10;5.22;;;;;;;;;;5028741;28;20056;-72
2022/03/20 10:44:31;;;;;;;6.45;4.45;;;;;;;;;;5033819;28;20272;-71
2022/03/20 10:46:58;;;;;;;8.55;4.63;;;;;;;;;;5032692;28;20033;-72
2022/03/20 10:49:25;;;;;;;8.40;5.10;;;;;;;;;;5031386;28;20021;-77
2022/03/20 10:52:04;;;;;;;6.45;4.85;;;;;;;;;;5034796;28;20025;-73
2022/03/20 10:54:40;;;;;;;7.03;4.78;;;;;;;;;;5033671;28;20666;-73
2022/03/20 10:57:08;;;;;;;7.82;4.53;;;;;;;;;;5038388;28;20037;-71
2022/03/20 10:59:34;;;;;;;7.13;4.70;;;;;;;;;;5029271;28;20127;-71
2022/03/20 11:02:01;;;;;;;9.13;5.20;;;;;;;;;;5040656;28;20555;-72
2022/03/20 11:04:28;;;;;;;8.00;4.57;;;;;;;;;;5037543;28;20029;-72
2022/03/20 11:06:54;;;;;;;8.20;5.57;;;;;;;;;;5036242;28;20541;-72
2022/03/20 11:09:21;;;;;;;11.57;5.63;;;;;;;;;;5031459;28;20025;-71
2022/03/20 11:11:51;;;;;;;12.23;6.07;;;;;;;;;;5033371;28;20033;-71
2022/03/20 11:14:27;;;;;;;13.65;8.38;;;;;;;;;;5035728;28;20067;-71
2022/03/20 11:17:01;;;;;;;8.40;6.18;;;;;;;;;;5035140;28;20086;-71
2022/03/20 11:19:29;;;;;;;11.02;6.55;;;;;;;;;;5029251;28;20382;-70
2022/03/20 11:21:55;;;;;;;11.98;6.32;;;;;;;;;;5034130;28;20082;-71
2022/03/20 11:24:22;;;;;;;9.90;5.93;;;;;;;;;;5032542;28;20025;-71
2022/03/20 11:26:51;;;;;;;9.32;5.75;;;;;;;;;;5034385;28;20610;-71
2022/03/20 11:29:19;;;;;;;7.95;5.22;;;;;;;;;;5030985;28;20055;-71
2022/03/20 11:31:46;;;;;;;14.50;5.35;;;;;;;;;;5031674;28;20029;-71
2022/03/20 11:34:12;;;;;;;8.52;4.50;;;;;;;;;;5032441;28;20595;-71
2022/03/20 11:36:57;;;;;;;8.52;4.68;;;;;;;;;;5030645;28;20029;-70
2022/03/20 11:39:23;;;;;;;8.00;4.28;;;;;;;;;;5033282;28;20056;-70
2022/03/20 11:42:09;;;;;;;6.55;4.45;;;;;;;;;;5026670;28;20523;-71
2022/03/20 11:44:35;;;;;;;6.38;4.72;;;;;;;;;;5033824;28;20041;-70
2022/03/20 11:47:17;;;;;;;7.40;5.47;;;;;;;;;;5027779;28;20025;-71
2022/03/20 11:49:43;;;;;;;9.70;5.90;;;;;;;;;;5029817;28;20036;-72
2022/03/20 11:52:15;;;;;;;10.82;6.40;;;;;;;;;;5032347;28;20090;-71
2022/03/20 11:54:41;;;;;;;7.97;6.22;;;;;;;;;;5032766;28;20048;-71
2022/03/20 11:57:27;;;;;;;9.13;5.75;;;;;;;;;;5031566;28;20671;-71
2022/03/20 11:59:56;;;;;;;8.55;5.20;;;;;;;;;;5028638;28;20079;-72
2022/03/20 12:02:46;;;;;;;8.02;5.55;;;;;;;;;;5029589;28;20053;-71
2022/03/20 12:05:15;;;;;;;6.70;4.50;;;;;;;;;;5025660;28;20056;-72
2022/03/20 12:08:01;;;;;;;6.32;4.80;;;;;;;;;;5035461;28;20041;-71
2022/03/20 12:10:28;;;;;;;6.63;4.30;;;;;;;;;;5002928;28;20599;-71
2022/03/20 12:13:04;;;;;;;5.90;3.95;;;;;;;;;;5029353;28;20044;-71
2022/03/20 12:15:31;;;;;;;7.32;4.90;;;;;;;;;;5028794;28;20033;-71
2022/03/20 12:17:57;;;;;;;11.35;4.90;;;;;;;;;;5035258;28;20086;-71
2022/03/20 12:20:42;;;;;;;8.15;4.65;;;;;;;;;;5029290;28;20100;-70
2022/03/20 12:23:26;;;;;;;6.70;3.92;;;;;;;;;;5027952;28;20086;-70
2022/03/20 12:25:53;;;;;;;7.38;3.95;;;;;;;;;;5033229;28;20063;-70
2022/03/20 12:28:29;;;;;;;10.32;4.95;;;;;;;;;;5027394;28;20038;-71
2022/03/20 12:30:55;;;;;;;7.97;4.18;;;;;;;;;;5033891;28;20067;-71
2022/03/20 12:33:23;;;;;;;5.40;4.10;;;;;;;;;;5034526;28;20509;-71
2022/03/20 12:35:49;;;;;;;11.20;4.32;;;;;;;;;;5031410;28;20037;-73
2022/03/20 12:38:34;;;;;;;16.05;4.63;;;;;;;;;;5032938;28;20060;-73
2022/03/20 12:41:17;;;;;;;6.93;4.22;;;;;;;;;;5031372;28;20038;-76
2022/03/20 12:43:44;;;;;;;9.15;4.70;;;;;;;;;;5026241;28;20026;-71
2022/03/20 12:46:10;;;;;;;8.32;4.85;;;;;;;;;;5030912;28;20587;-72
2022/03/20 12:48:37;;;;;;;5.57;4.63;;;;;;;;;;5032262;28;20025;-71
2022/03/20 12:51:03;;;;;;;6.47;5.72;;;;;;;;;;5028415;28;20505;-72
2022/03/20 12:53:40;;;;;;;7.05;5.13;;;;;;;;;;5030641;28;20037;-71
2022/03/20 12:56:11;;;;;;;9.38;4.50;;;;;;;;;;5028447;28;20104;-71
2022/03/20 12:58:38;;;;;;;10.70;5.03;;;;;;;;;;5027876;28;20056;-71
2022/03/20 13:01:08;;;;;;;7.93;4.20;;;;;;;;;;5028464;28;20119;-70
2022/03/20 13:03:34;;;;;;;6.32;4.03;;;;;;;;;;5028048;28;20052;-71
2022/03/20 13:06:01;;;;;;;6.00;4.85;;;;;;;;;;5024247;28;20029;-71
2022/03/20 13:08:38;;;;;;;6.25;4.55;;;;;;;;;;5028972;28;20036;-70
2022/03/20 13:11:48;;;;;;;5.22;4.32;;;;;;;;;;5034938;28;20063;-70
2022/03/20 13:14:00;;;;;;;5.65;4.60;;;;;;;;;;5033460;28;20072;-71
2022/03/20 13:16:26;;;;;;;6.63;4.72;;;;;;;;;;5030604;28;20461;-71
2022/03/20 13:18:53;;;;;;;8.02;4.72;;;;;;;;;;5033044;28;20037;-71
2022/03/20 13:21:19;;;;;;;5.82;4.20;;;;;;;;;;5030270;28;20025;-71
2022/03/20 13:23:47;;;;;;;4.97;4.30;;;;;;;;;;5031621;28;20064;-70
2022/03/20 13:26:20;;;;;;;7.82;4.93;;;;;;;;;;5032177;28;20037;-71
2022/03/20 13:28:47;;;;;;;4.65;4.00;;;;;;;;;;5030063;28;20041;-71
2022/03/20 13:31:20;;;;;;;7.47;4.45;;;;;;;;;;5032143;28;20039;-73
2022/03/20 13:33:54;;;;;;;6.20;4.88;;;;;;;;;;5033357;28;20025;-73
2022/03/20 13:36:21;;;;;;;8.95;4.30;;;;;;;;;;5030323;28;20040;-72
2022/03/20 13:38:48;;;;;;;9.90;5.38;;;;;;;;;;5030836;28;20484;-70
2022/03/20 13:41:19;;;;;;;8.30;4.82;;;;;;;;;;5032290;28;20028;-71
2022/03/20 13:43:46;;;;;;;5.22;3.88;;;;;;;;;;5036042;28;20141;-72
2022/03/20 13:46:17;;;;;;;6.25;4.20;;;;;;;;;;5033840;28;20490;-71
2022/03/20 13:48:43;;;;;;;10.02;4.75;;;;;;;;;;5040158;28;20032;-71
2022/03/20 13:51:10;;;;;;;7.00;4.20;;;;;;;;;;5028260;28;20128;-71
2022/03/20 13:53:37;;;;;;;5.70;4.53;;;;;;;;;;5031470;28;20037;-71
2022/03/20 13:56:03;;;;;;;7.60;4.97;;;;;;;;;;5031822;28;20033;-71
2022/03/20 13:58:30;;;;;;;7.32;4.82;;;;;;;;;;5029940;28;20091;-72
2022/03/20 14:01:01;;;;;;;7.25;4.95;;;;;;;;;;5030685;28;20535;-76
2022/03/20 14:03:30;;;;;;;7.75;5.25;;;;;;;;;;5029797;28;20037;-72
2022/03/20 14:05:56;;;;;;;6.65;4.60;;;;;;;;;;5029813;28;20563;-71
2022/03/20 14:08:23;;;;;;;6.60;4.72;;;;;;;;;;5032108;28;20036;-75
2022/03/20 14:10:50;;;;;;;7.97;4.70;;;;;;;;;;5032570;28;20031;-70
2022/03/20 14:13:18;;;;;;;37.53;7.50;;;;;;;;;;5032369;28;20042;-71
2022/03/20 14:15:53;;;;;;;7.13;4.90;;;;;;;;;;5038646;28;20452;-71
2022/03/20 14:18:19;;;;;;;6.43;4.38;;;;;;;;;;5031531;28;20146;-71
2022/03/20 14:20:45;;;;;;;5.72;4.30;;;;;;;;;;5029504;28;20132;-70
2022/03/20 14:23:12;;;;;;;5.47;4.50;;;;;;;;;;5028414;28;20029;-71
2022/03/20 14:25:42;;;;;;;6.60;4.50;;;;;;;;;;5032946;28;20503;-70
2022/03/20 14:28:24;;;;;;;8.52;5.10;;;;;;;;;;5038934;28;20615;-71
2022/03/20 14:39:40;;;;;;;7.15;4.70;;;;;;;;;;5031961;28;20044;-71
2022/03/20 14:42:06;;;;;;;10.82;5.07;;;;;;;;;;5027697;28;20109;-70
2022/03/20 14:44:35;;;;;;;10.38;5.55;;;;;;;;;;5032210;28;20029;-71
2022/03/20 14:47:07;;;;;;;7.28;5.13;;;;;;;;;;5029522;28;20037;-71
2022/03/20 14:49:34;;;;;;;10.13;5.10;;;;;;;;;;5027739;28;20100;-70
2022/03/20 14:52:01;;;;;;;8.20;5.55;;;;;;;;;;5030912;28;20037;-71
2022/03/20 14:54:27;;;;;;;8.10;6.00;;;;;;;;;;5029962;28;20028;-70
2022/03/20 14:56:56;;;;;;;5.97;4.72;;;;;;;;;;5032273;28;20034;-72
2022/03/20 14:59:23;;;;;;;8.85;5.38;;;;;;;;;;5028946;28;20430;-71
2022/03/20 15:01:51;;;;;;;7.50;5.10;;;;;;;;;;5030940;28;20032;-71
2022/03/20 15:04:19;;;;;;;10.10;5.10;;;;;;;;;;5028128;28;20037;-70
2022/03/20 15:06:47;;;;;;;11.57;7.10;;;;;;;;;;5030776;28;20100;-72
2022/03/20 15:11:59;;;;;;;14.85;7.47;;;;;;;;;;5027820;28;20208;-71
2022/03/20 15:14:25;;;;;;;6.57;5.47;;;;;;;;;;5027654;28;20091;-78
2022/03/20 15:16:51;;;;;;;6.50;5.35;;;;;;;;;;5026195;28;20041;-70
2022/03/20 15:19:17;;;;;;;12.38;5.20;;;;;;;;;;5033981;28;20108;-70
2022/03/20 15:21:44;;;;;;;9.95;4.80;;;;;;;;;;5033382;28;20033;-72
2022/03/20 15:24:10;;;;;;;9.57;5.00;;;;;;;;;;5028206;28;20037;-70
2022/03/20 15:26:37;;;;;;;10.10;5.10;;;;;;;;;;5032058;28;20033;-71
2022/03/20 15:29:05;;;;;;;8.93;5.13;;;;;;;;;;5030597;28;20090;-70
2022/03/20 15:31:32;;;;;;;5.55;4.47;;;;;;;;;;5024857;28;20108;-71
2022/03/20 15:33:59;;;;;;;12.77;5.20;;;;;;;;;;5030556;28;20025;-70
2022/03/20 15:36:25;;;;;;;9.73;5.07;;;;;;;;;;5029119;28;20489;-70
2022/03/20 15:38:55;;;;;;;7.80;5.03;;;;;;;;;;5030463;28;20098;-70
2022/03/20 15:41:28;;;;;;;8.93;5.20;;;;;;;;;;5031086;28;20026;-71